createdAt,value
2023-02-19T00:01:29.124Z,100840.22
2023-02-19T00:04:07.457Z,100847.94
2023-02-19T00:06:35.572Z,100847.13
2023-02-19T00:09:02.734Z,100851.38
2023-02-19T00:11:32.266Z,100855.34
2023-02-19T00:14:00.502Z,100853.13
2023-02-19T00:16:37.009Z,100854.28
2023-02-19T00:19:06.500Z,100860.84
2023-02-19T00:21:33.684Z,100861.00
2023-02-19T00:24:03.534Z,100857.19
2023-02-19T00:26:30.664Z,100860.50
2023-02-19T00:28:57.922Z,100872.63
2023-02-19T00:31:27.092Z,100862.59
2023-02-19T00:33:56.736Z,100856.94
2023-02-19T00:36:24.282Z,100860.84
2023-02-19T00:38:51.551Z,100861.91
2023-02-19T00:41:20.194Z,100869.63
2023-02-19T00:43:57.037Z,100864.56
2023-02-19T00:46:29.243Z,100870.09
2023-02-19T00:48:56.518Z,100876.41
2023-02-19T00:51:26.531Z,100894.44
2023-02-19T00:53:53.147Z,100891.53
2023-02-19T00:56:19.995Z,100885.78
2023-02-19T00:58:47.017Z,100893.28
2023-02-19T01:01:13.743Z,100899.63
2023-02-19T01:03:40.739Z,100911.41
2023-02-19T01:06:09.390Z,100901.13
2023-02-19T01:08:36.558Z,100905.50
2023-02-19T01:11:05.276Z,100900.44
2023-02-19T01:13:33.497Z,100898.34
2023-02-19T01:16:08.298Z,100903.44
2023-02-19T01:18:35.416Z,100910.69
2023-02-19T01:21:07.222Z,100892.69
2023-02-19T01:23:34.061Z,100902.59
2023-02-19T01:26:00.691Z,100905.72
2023-02-19T01:28:27.225Z,100910.09
2023-02-19T01:30:53.892Z,100914.72
2023-02-19T01:33:20.554Z,100911.88
2023-02-19T01:35:47.086Z,100916.38
2023-02-19T01:38:13.587Z,100932.72
2023-02-19T01:40:40.097Z,100931.47
2023-02-19T01:43:15.940Z,100942.66
2023-02-19T01:45:45.869Z,100936.56
2023-02-19T01:48:17.548Z,100949.00
2023-02-19T01:50:54.183Z,100944.75
2023-02-19T01:53:25.943Z,100948.41
2023-02-19T01:55:56.237Z,100949.00
2023-02-19T01:58:26.231Z,100958.22
2023-02-19T02:00:52.885Z,100961.69
2023-02-19T02:03:20.373Z,100974.38
2023-02-19T02:05:58.029Z,100967.69
2023-02-19T02:08:44.908Z,100983.16
2023-02-19T02:11:11.817Z,100982.34
2023-02-19T02:13:40.259Z,100981.97
2023-02-19T02:16:25.414Z,100980.59
2023-02-19T02:19:01.838Z,100967.66
2023-02-19T02:21:57.314Z,100964.88
2023-02-19T02:25:00.952Z,100993.03
2023-02-19T02:27:46.557Z,100977.31
2023-02-19T02:30:30.253Z,100984.16
2023-02-19T02:33:28.595Z,100990.16
2023-02-19T02:36:08.921Z,101006.72
2023-02-19T02:38:38.813Z,101010.84
2023-02-19T02:41:06.687Z,101014.41
2023-02-19T02:43:33.612Z,101027.28
2023-02-19T02:46:00.327Z,101038.75
2023-02-19T02:48:45.732Z,101050.25
2023-02-19T02:51:25.733Z,101050.06
2023-02-19T02:54:17.059Z,101072.91
2023-02-19T02:56:46.217Z,101078.06
2023-02-19T02:59:14.616Z,101082.19
2023-02-19T03:02:08.686Z,101073.84
2023-02-19T03:05:04.191Z,101080.38
2023-02-19T03:07:55.568Z,101089.78
2023-02-19T03:10:34.042Z,101091.03
2023-02-19T03:13:22.123Z,101086.75
2023-02-19T03:16:11.852Z,101091.91
2023-02-19T03:18:59.801Z,101095.41
2023-02-19T03:21:29.002Z,101090.59
2023-02-19T03:24:16.604Z,101109.78
2023-02-19T03:26:45.360Z,101114.31
2023-02-19T03:29:26.228Z,101129.00
2023-02-19T03:31:57.769Z,101123.72
2023-02-19T03:34:31.821Z,101141.28
2023-02-19T03:37:06.507Z,101153.50
2023-02-19T03:39:33.340Z,101159.44
2023-02-19T03:42:12.101Z,101163.50
2023-02-19T03:45:02.366Z,101168.22
2023-02-19T03:47:33.870Z,101181.63
2023-02-19T03:50:18.709Z,101186.75
2023-02-19T03:53:10.620Z,101179.47
2023-02-19T03:55:54.113Z,101182.13
2023-02-19T03:58:28.699Z,101194.34
2023-02-19T04:01:07.429Z,101195.56
2023-02-19T04:03:42.714Z,101194.75
2023-02-19T04:06:19.917Z,101215.28
2023-02-19T04:08:50.056Z,101224.88
2023-02-19T04:11:19.277Z,101229.75
2023-02-19T04:14:07.177Z,101234.25
2023-02-19T04:16:37.190Z,101235.06
2023-02-19T04:19:10.286Z,101239.94
2023-02-19T04:21:39.512Z,101232.59
2023-02-19T04:24:21.928Z,101216.72
2023-02-19T04:26:49.038Z,101220.19
2023-02-19T04:29:15.552Z,101217.97
2023-02-19T04:31:42.125Z,101200.06
2023-02-19T04:34:08.662Z,101208.63
2023-02-19T04:36:35.334Z,101221.66
2023-02-19T04:39:01.936Z,101232.84
2023-02-19T04:41:28.547Z,101235.50
2023-02-19T04:43:55.189Z,101255.00
2023-02-19T04:46:21.801Z,101259.09
2023-02-19T04:48:48.396Z,101257.88
2023-02-19T04:51:15.000Z,101259.06
2023-02-19T04:53:42.783Z,101265.78
2023-02-19T04:56:15.395Z,101270.47
2023-02-19T04:58:42.948Z,101280.81
2023-02-19T05:01:10.763Z,101283.06
2023-02-19T05:03:38.031Z,101280.63
2023-02-19T05:06:06.624Z,101287.13
2023-02-19T05:08:33.680Z,101293.44
2023-02-19T05:11:01.863Z,101286.13
2023-02-19T05:13:29.156Z,101285.31
2023-02-19T05:16:01.492Z,101289.38
2023-02-19T05:18:29.632Z,101292.38
2023-02-19T05:20:57.818Z,101298.06
2023-02-19T05:23:25.275Z,101305.34
2023-02-19T05:25:52.319Z,101306.75
2023-02-19T05:28:19.396Z,101305.34
2023-02-19T05:30:53.010Z,101311.03
2023-02-19T05:33:22.332Z,101319.97
2023-02-19T05:35:51.221Z,101313.88
2023-02-19T05:38:18.828Z,101307.16
2023-02-19T05:40:46.112Z,101304.09
2023-02-19T05:43:13.652Z,101309.38
2023-02-19T05:45:41.803Z,101304.31
2023-02-19T05:48:08.748Z,101309.78
2023-02-19T05:50:39.635Z,101307.34
2023-02-19T05:53:06.523Z,101312.63
2023-02-19T05:55:36.802Z,101325.41
2023-02-19T05:58:03.944Z,101329.66
2023-02-19T06:00:32.829Z,101337.00
2023-02-19T06:02:59.567Z,101335.75
2023-02-19T06:05:26.382Z,101330.47
2023-02-19T06:07:52.910Z,101334.34
2023-02-19T06:10:19.714Z,101334.34
2023-02-19T06:12:46.235Z,101336.19
2023-02-19T06:15:12.912Z,101332.09
2023-02-19T06:17:39.668Z,101340.66
2023-02-19T06:20:06.588Z,101340.66
2023-02-19T06:22:33.560Z,101339.00
2023-02-19T06:25:00.070Z,101336.56
2023-02-19T06:27:26.630Z,101343.28
2023-02-19T06:29:53.201Z,101342.66
2023-02-19T06:32:19.975Z,101338.19
2023-02-19T06:34:46.558Z,101342.66
2023-02-19T06:37:13.129Z,101360.13
2023-02-19T06:39:39.661Z,101367.44
2023-02-19T06:42:06.161Z,101381.63
2023-02-19T06:44:32.792Z,101392.78
2023-02-19T06:46:59.304Z,101393.38
2023-02-19T06:49:25.881Z,101396.41
2023-02-19T06:51:52.458Z,101398.44
2023-02-19T06:54:18.981Z,101402.25
2023-02-19T06:56:47.059Z,101386.63
2023-02-19T06:59:18.837Z,101392.69
2023-02-19T07:01:46.240Z,101425.16
2023-02-19T07:04:12.777Z,101446.84
2023-02-19T07:06:39.716Z,101439.09
2023-02-19T07:09:07.499Z,101425.69
2023-02-19T07:11:35.668Z,101404.53
2023-02-19T07:14:05.167Z,101413.41
2023-02-19T07:16:31.842Z,101429.38
2023-02-19T07:19:00.372Z,101420.66
2023-02-19T07:21:29.260Z,101436.41
2023-02-19T07:23:56.461Z,101425.84
2023-02-19T07:26:23.706Z,101419.13
2023-02-19T07:28:51.435Z,101422.94
2023-02-19T07:31:20.289Z,101416.41
2023-02-19T07:33:47.440Z,101405.03
2023-02-19T07:36:15.536Z,101407.03
2023-02-19T07:38:42.055Z,101396.06
2023-02-19T07:41:08.757Z,101411.06
2023-02-19T07:43:37.457Z,101410.63
2023-02-19T07:46:05.993Z,101422.38
2023-02-19T07:48:34.224Z,101421.94
2023-02-19T07:51:01.808Z,101435.28
2023-02-19T07:53:28.879Z,101436.09
2023-02-19T07:56:01.149Z,101443.75
2023-02-19T07:58:28.421Z,101453.09
2023-02-19T08:00:55.274Z,101458.38
2023-02-19T08:03:22.057Z,101468.09
2023-02-19T08:05:51.479Z,101479.25
2023-02-19T08:08:18.045Z,101486.34
2023-02-19T08:11:03.311Z,101498.16
2023-02-19T08:13:31.372Z,101502.25
2023-02-19T08:16:17.107Z,101506.38
2023-02-19T08:18:46.110Z,101504.88
2023-02-19T08:21:13.324Z,101510.81
2023-02-19T08:23:40.355Z,101508.84
2023-02-19T08:26:07.466Z,101497.38
2023-02-19T08:28:34.067Z,101504.31
2023-02-19T08:31:06.963Z,101493.84
2023-02-19T08:33:33.776Z,101478.88
2023-02-19T08:36:06.169Z,101467.34
2023-02-19T08:38:35.868Z,101460.31
2023-02-19T08:41:11.284Z,101469.47
2023-02-19T08:43:38.597Z,101476.00
2023-02-19T08:46:07.139Z,101473.78
2023-02-19T08:48:34.174Z,101481.50
2023-02-19T08:51:07.174Z,101493.28
2023-02-19T08:53:35.379Z,101489.63
2023-02-19T08:56:13.768Z,101482.34
2023-02-19T08:58:40.615Z,101468.13
2023-02-19T09:01:12.308Z,101481.94
2023-02-19T09:03:39.300Z,101495.56
2023-02-19T09:06:06.179Z,101497.81
2023-02-19T09:08:32.917Z,101499.06
2023-02-19T09:11:04.578Z,101484.84
2023-02-19T09:13:31.115Z,101493.41
2023-02-19T09:15:57.898Z,101501.75
2023-02-19T09:18:25.975Z,101496.50
2023-02-19T09:20:52.533Z,101498.34
2023-02-19T09:23:19.308Z,101493.75
2023-02-19T09:25:45.954Z,101508.22
2023-02-19T09:28:12.482Z,101505.84
2023-02-19T09:30:39.038Z,101514.00
2023-02-19T09:33:06.130Z,101529.91
2023-02-19T09:35:32.656Z,101529.31
2023-02-19T09:38:01.009Z,101524.66
2023-02-19T09:40:27.872Z,101519.41
2023-02-19T09:42:54.449Z,101530.81
2023-02-19T09:45:25.219Z,101516.56
2023-02-19T09:47:58.049Z,101518.22
2023-02-19T09:50:38.398Z,101523.09
2023-02-19T09:53:11.798Z,101514.16
2023-02-19T09:55:43.545Z,101508.88
2023-02-19T09:58:41.768Z,101499.91
2023-02-19T10:01:12.634Z,101502.75
2023-02-19T10:03:43.270Z,101506.22
2023-02-19T10:06:23.717Z,101505.38
2023-02-19T10:08:53.432Z,101502.31
2023-02-19T10:11:20.032Z,101510.47
2023-02-19T10:13:54.779Z,101517.81
2023-02-19T10:16:26.665Z,101521.66
2023-02-19T10:18:53.631Z,101522.88
2023-02-19T10:21:28.221Z,101522.25
2023-02-19T10:24:02.801Z,101521.00
2023-02-19T10:26:34.711Z,101521.63
2023-02-19T10:29:02.055Z,101520.41
2023-02-19T10:31:31.730Z,101520.19
2023-02-19T10:34:03.160Z,101527.53
2023-02-19T10:36:41.201Z,101520.63
2023-02-19T10:39:23.650Z,101517.13
2023-02-19T10:41:51.447Z,101523.00
2023-02-19T10:44:17.893Z,101517.28
2023-02-19T10:46:47.140Z,101513.38
2023-02-19T10:49:22.763Z,101528.63
2023-02-19T10:51:49.672Z,101531.84
2023-02-19T10:54:18.989Z,101524.69
2023-02-19T10:56:46.352Z,101532.81
2023-02-19T10:59:25.894Z,101521.56
2023-02-19T11:02:01.542Z,101511.97
2023-02-19T11:04:35.188Z,101514.16
2023-02-19T11:07:17.372Z,101498.63
2023-02-19T11:09:46.373Z,101499.03
2023-02-19T11:12:14.700Z,101509.59
2023-02-19T11:14:44.519Z,101511.03
2023-02-19T11:17:25.051Z,101509.13
2023-02-19T11:19:58.598Z,101510.31
2023-02-19T11:22:39.107Z,101508.44
2023-02-19T11:25:19.411Z,101509.22
2023-02-19T11:28:20.698Z,101503.22
2023-02-19T11:30:47.950Z,101514.97
2023-02-19T11:33:17.461Z,101505.94
2023-02-19T11:35:45.027Z,101507.50
2023-02-19T11:38:14.680Z,101512.75
2023-02-19T11:40:45.762Z,101520.88
2023-02-19T11:43:18.167Z,101530.88
2023-02-19T11:46:16.028Z,101526.53
2023-02-19T11:48:55.551Z,101526.25
2023-02-19T11:51:22.450Z,101527.81
2023-02-19T11:54:06.497Z,101515.66
2023-02-19T11:56:37.213Z,101525.56
2023-02-19T11:59:05.251Z,101523.97
2023-02-19T12:02:09.623Z,101503.81
2023-02-19T12:04:46.110Z,101499.25
2023-02-19T12:07:24.620Z,101495.66
2023-02-19T12:10:30.794Z,101496.19
2023-02-19T12:13:15.437Z,101500.72
2023-02-19T12:16:09.957Z,101492.00
2023-02-19T12:18:48.541Z,101476.69
2023-02-19T12:21:35.431Z,101491.66
2023-02-19T12:24:50.265Z,101490.88
2023-02-19T12:27:38.451Z,101495.88
2023-02-19T12:30:27.110Z,101495.97
2023-02-19T12:33:09.310Z,101475.59
2023-02-19T12:35:48.556Z,101467.50
2023-02-19T12:38:32.482Z,101461.28
2023-02-19T12:41:16.382Z,101467.50
2023-02-19T12:44:01.117Z,101457.31
2023-02-19T12:46:36.638Z,101470.63
2023-02-19T12:49:14.244Z,101467.16
2023-02-19T12:51:48.784Z,101464.38
2023-02-19T12:54:26.124Z,101474.69
2023-02-19T12:56:55.642Z,101466.31
2023-02-19T12:59:23.268Z,101464.72
2023-02-19T13:02:28.372Z,101463.25
2023-02-19T13:05:01.225Z,101458.78
2023-02-19T13:08:19.308Z,101452.69
2023-02-19T13:10:59.407Z,101447.63
2023-02-19T13:13:34.354Z,101439.22
2023-02-19T13:16:09.879Z,101441.50
2023-02-19T13:18:42.963Z,101433.34
2023-02-19T13:21:11.203Z,101435.94
2023-02-19T13:23:59.697Z,101427.06
2023-02-19T13:26:41.493Z,101429.88
2023-02-19T13:29:26.744Z,101420.41
2023-02-19T13:32:53.517Z,101418.78
2023-02-19T13:36:06.049Z,101419.00
2023-02-19T13:38:38.145Z,101420.00
2023-02-19T13:41:05.049Z,101407.00
2023-02-19T13:43:40.148Z,101409.22
2023-02-19T13:46:09.824Z,101394.84
2023-02-19T13:48:38.660Z,101395.97
2023-02-19T13:51:34.502Z,101389.56
2023-02-19T13:54:04.697Z,101372.72
2023-02-19T13:56:34.236Z,101369.19
2023-02-19T13:59:39.141Z,101355.78
2023-02-19T14:02:12.430Z,101343.41
2023-02-19T14:04:55.647Z,101342.78
2023-02-19T14:07:35.528Z,101337.06
2023-02-19T14:10:03.124Z,101335.38
2023-02-19T14:12:34.748Z,101326.75
2023-02-19T14:15:39.047Z,101319.72
2023-02-19T14:18:45.081Z,101311.06
2023-02-19T14:21:34.080Z,101312.31
2023-02-19T14:24:01.825Z,101312.00
2023-02-19T14:26:32.198Z,101315.75
2023-02-19T14:29:00.954Z,101313.59
2023-02-19T14:31:31.226Z,101309.38
2023-02-19T14:34:04.332Z,101316.28
2023-02-19T14:36:44.275Z,101333.72
2023-02-19T14:39:40.369Z,101331.03
2023-02-19T14:42:17.266Z,101339.16
2023-02-19T14:44:52.419Z,101329.66
2023-02-19T14:47:21.994Z,101344.44
2023-02-19T14:49:53.894Z,101344.19
2023-02-19T14:52:41.114Z,101339.41
2023-02-19T14:55:26.066Z,101331.41
2023-02-19T14:57:54.712Z,101329.53
2023-02-19T15:00:29.934Z,101307.56
2023-02-19T15:02:57.723Z,101304.91
2023-02-19T15:05:27.527Z,101301.69
2023-02-19T15:07:57.057Z,101300.03
2023-02-19T15:10:25.023Z,101302.16
2023-02-19T15:12:57.978Z,101285.03
2023-02-19T15:15:29.159Z,101288.75
2023-02-19T15:17:59.109Z,101290.03
2023-02-19T15:20:28.899Z,101282.28
2023-02-19T15:22:58.442Z,101282.78
2023-02-19T15:25:30.530Z,101278.97
2023-02-19T15:28:16.998Z,101273.84
2023-02-19T15:30:43.540Z,101274.84
2023-02-19T15:33:19.868Z,101279.84
2023-02-19T15:35:53.827Z,101262.69
2023-02-19T15:38:20.780Z,101259.72
2023-02-19T15:40:48.778Z,101248.72
2023-02-19T15:43:27.791Z,101254.53
2023-02-19T15:46:01.384Z,101250.75
2023-02-19T15:48:37.909Z,101240.56
2023-02-19T15:51:12.775Z,101238.63
2023-02-19T15:53:47.671Z,101249.00
2023-02-19T15:56:28.140Z,101241.69
2023-02-19T15:58:57.472Z,101241.91
2023-02-19T16:01:29.747Z,101236.72
2023-02-19T16:03:57.020Z,101229.44
2023-02-19T16:06:25.562Z,101235.75
2023-02-19T16:08:52.006Z,101247.88
2023-02-19T16:11:24.531Z,101244.34
2023-02-19T16:13:52.062Z,101244.47
2023-02-19T16:16:35.075Z,101245.94
2023-02-19T16:19:01.998Z,101240.75
2023-02-19T16:21:28.996Z,101238.22
2023-02-19T16:24:24.965Z,101232.72
2023-02-19T16:26:51.534Z,101233.09
2023-02-19T16:29:19.741Z,101241.50
2023-02-19T16:31:58.828Z,101225.38
2023-02-19T16:34:47.057Z,101209.22
2023-02-19T16:37:56.278Z,101233.34
2023-02-19T16:40:44.494Z,101233.97
2023-02-19T16:43:14.059Z,101228.44
2023-02-19T16:45:45.650Z,101228.91
2023-02-19T16:48:13.517Z,101217.72
2023-02-19T16:50:44.046Z,101217.84
2023-02-19T16:53:36.692Z,101215.88
2023-02-19T16:56:03.326Z,101217.41
2023-02-19T16:58:29.951Z,101207.66
2023-02-19T17:00:57.379Z,101203.06
2023-02-19T17:03:25.661Z,101206.09
2023-02-19T17:05:52.788Z,101185.75
2023-02-19T17:08:29.558Z,101196.38
2023-02-19T17:10:56.333Z,101192.22
2023-02-19T17:13:22.853Z,101192.78
2023-02-19T17:15:49.391Z,101216.72
2023-02-19T17:18:16.059Z,101226.31
2023-02-19T17:20:48.025Z,101214.75
2023-02-19T17:23:14.847Z,101205.38
2023-02-19T17:25:41.391Z,101202.38
2023-02-19T17:28:07.904Z,101201.81
2023-02-19T17:30:34.990Z,101206.78
2023-02-19T17:33:01.722Z,101198.00
2023-02-19T17:35:28.276Z,101193.94
2023-02-19T17:37:54.850Z,101197.88
2023-02-19T17:40:33.060Z,101194.06
2023-02-19T17:43:01.517Z,101192.44
2023-02-19T17:45:28.651Z,101200.28
2023-02-19T17:47:55.240Z,101204.00
2023-02-19T17:50:24.534Z,101221.44
2023-02-19T17:52:51.159Z,101221.31
2023-02-19T17:55:18.552Z,101224.44
2023-02-19T17:57:46.681Z,101228.25
2023-02-19T18:00:15.429Z,101227.28
2023-02-19T18:02:42.430Z,101220.13
2023-02-19T18:05:09.135Z,101225.13
2023-02-19T18:07:36.144Z,101224.97
2023-02-19T18:10:03.253Z,101224.41
2023-02-19T18:12:29.972Z,101210.31
2023-02-19T18:14:57.240Z,101214.91
2023-02-19T18:17:25.070Z,101205.44
2023-02-19T18:19:53.424Z,101192.03
2023-02-19T18:22:20.663Z,101189.13
2023-02-19T18:24:49.238Z,101188.41
2023-02-19T18:27:18.545Z,101182.75
2023-02-19T18:29:48.681Z,101195.91
2023-02-19T18:32:15.371Z,101179.84
2023-02-19T18:34:41.968Z,101176.81
2023-02-19T18:37:08.477Z,101179.69
2023-02-19T18:39:34.988Z,101183.03
2023-02-19T18:42:02.262Z,101184.06
2023-02-19T18:44:28.860Z,101190.06
2023-02-19T18:46:55.517Z,101177.00
2023-02-19T18:49:22.227Z,101181.56
2023-02-19T18:51:48.961Z,101185.72
2023-02-19T18:54:15.705Z,101186.38
2023-02-19T18:56:46.744Z,101184.75
2023-02-19T18:59:13.676Z,101185.44
2023-02-19T19:01:43.233Z,101193.03
2023-02-19T19:04:09.861Z,101201.22
2023-02-19T19:06:36.574Z,101208.47
2023-02-19T19:09:04.196Z,101208.31
2023-02-19T19:11:31.085Z,101215.75
2023-02-19T19:13:57.954Z,101212.88
2023-02-19T19:16:25.973Z,101216.78
2023-02-19T19:18:53.331Z,101211.09
2023-02-19T19:21:20.544Z,101212.00
2023-02-19T19:23:47.324Z,101217.97
2023-02-19T19:26:15.074Z,101220.41
2023-02-19T19:28:44.564Z,101221.28
2023-02-19T19:31:12.899Z,101217.66
2023-02-19T19:33:39.732Z,101207.72
2023-02-19T19:36:07.132Z,101201.09
2023-02-19T19:38:33.615Z,101204.59
2023-02-19T19:41:00.345Z,101201.22
2023-02-19T19:43:28.760Z,101212.91
2023-02-19T19:45:55.751Z,101211.50
2023-02-19T19:48:23.500Z,101216.44
2023-02-19T19:50:50.272Z,101225.41
2023-02-19T19:53:17.022Z,101218.34
2023-02-19T19:55:43.943Z,101227.09
2023-02-19T19:58:10.528Z,101221.41
2023-02-19T20:00:37.092Z,101222.88
2023-02-19T20:03:03.861Z,101222.06
2023-02-19T20:05:30.522Z,101228.00
2023-02-19T20:07:57.087Z,101221.72
2023-02-19T20:10:23.706Z,101204.44
2023-02-19T20:12:50.213Z,101205.91
2023-02-19T20:15:21.915Z,101203.25
2023-02-19T20:17:49.027Z,101205.72
2023-02-19T20:20:17.925Z,101201.88
2023-02-19T20:22:44.611Z,101191.72
2023-02-19T20:25:11.532Z,101200.47
2023-02-19T20:27:38.102Z,101196.59
2023-02-19T20:30:05.893Z,101199.47
2023-02-19T20:32:32.571Z,101198.88
2023-02-19T20:34:59.091Z,101202.75
2023-02-19T20:37:25.576Z,101208.28
2023-02-19T20:39:52.704Z,101202.59
2023-02-19T20:42:19.250Z,101204.06
2023-02-19T20:44:45.733Z,101192.25
2023-02-19T20:47:12.410Z,101202.06
2023-02-19T20:49:38.914Z,101198.38
2023-02-19T20:52:07.215Z,101193.09
2023-02-19T20:54:35.673Z,101185.59
2023-02-19T20:57:05.277Z,101193.75
2023-02-19T20:59:35.414Z,101198.22
2023-02-19T21:02:07.003Z,101187.47
2023-02-19T21:04:33.665Z,101186.28
2023-02-19T21:07:00.499Z,101193.41
2023-02-19T21:09:26.991Z,101188.31
2023-02-19T21:11:53.741Z,101186.91
2023-02-19T21:14:20.470Z,101173.31
2023-02-19T21:16:47.148Z,101179.41
2023-02-19T21:19:13.724Z,101185.53
2023-02-19T21:21:40.501Z,101181.28
2023-02-19T21:24:07.342Z,101172.94
2023-02-19T21:26:39.148Z,101172.13
2023-02-19T21:29:06.889Z,101159.09
2023-02-19T21:31:41.333Z,101173.78
2023-02-19T21:34:10.073Z,101178.25
2023-02-19T21:36:37.046Z,101169.75
2023-02-19T21:39:05.492Z,101172.81
2023-02-19T21:41:32.577Z,101179.94
2023-02-19T21:43:59.180Z,101173.22
2023-02-19T21:46:26.103Z,101174.25
2023-02-19T21:48:54.950Z,101167.13
2023-02-19T21:51:28.319Z,101166.69
2023-02-19T21:53:54.874Z,101169.34
2023-02-19T21:56:26.076Z,101176.25
2023-02-19T21:58:52.904Z,101170.16
2023-02-19T22:01:22.642Z,101174.00
2023-02-19T22:03:49.236Z,101162.19
2023-02-19T22:06:16.348Z,101168.88
2023-02-19T22:08:44.315Z,101172.53
2023-02-19T22:11:10.971Z,101165.78
2023-02-19T22:13:37.488Z,101159.22
2023-02-19T22:16:04.226Z,101152.72
2023-02-19T22:18:30.789Z,101155.13
2023-02-19T22:20:57.612Z,101144.78
2023-02-19T22:23:24.375Z,101136.03
2023-02-19T22:25:50.956Z,101139.91
2023-02-19T22:28:18.663Z,101142.78
2023-02-19T22:30:45.162Z,101135.63
2023-02-19T22:33:11.718Z,101127.13
2023-02-19T22:35:38.243Z,101120.19
2023-02-19T22:38:04.786Z,101112.47
2023-02-19T22:40:31.345Z,101109.19
2023-02-19T22:42:57.848Z,101118.78
2023-02-19T22:45:25.697Z,101120.81
2023-02-19T22:47:55.969Z,101119.59
2023-02-19T22:50:23.232Z,101114.94
2023-02-19T22:52:50.263Z,101113.53
2023-02-19T22:55:17.415Z,101122.88
2023-02-19T22:57:43.908Z,101119.84
2023-02-19T23:00:17.172Z,101120.84
2023-02-19T23:02:43.668Z,101114.19
2023-02-19T23:05:10.237Z,101115.81
2023-02-19T23:07:37.931Z,101109.31
2023-02-19T23:10:04.784Z,101108.72
2023-02-19T23:12:31.290Z,101110.53
2023-02-19T23:14:57.851Z,101101.19
2023-02-19T23:17:24.327Z,101104.66
2023-02-19T23:19:50.831Z,101101.59
2023-02-19T23:22:17.633Z,101110.75
2023-02-19T23:24:44.140Z,101104.44
2023-02-19T23:27:10.647Z,101104.66
2023-02-19T23:29:37.199Z,101104.03
2023-02-19T23:32:04.033Z,101100.97
2023-02-19T23:34:30.584Z,101099.69
2023-02-19T23:36:59.606Z,101095.59
2023-02-19T23:39:26.497Z,101093.13
2023-02-19T23:41:55.288Z,101089.84
2023-02-19T23:44:24.336Z,101090.22
2023-02-19T23:46:52.275Z,101077.56
2023-02-19T23:49:19.308Z,101080.00
2023-02-19T23:51:45.907Z,101078.75
2023-02-19T23:54:12.592Z,101074.31
2023-02-19T23:56:39.304Z,101061.63
2023-02-19T23:59:05.939Z,101071.44
